Monday, October 16, 2017, 6:04 PM EDT
Back to Local

KHVN, Tweed-new Haven Airport

Location: East Haven, CT, United States Lat: 41.267
Local Time: 6:04 PM EDT (22:04 GMT) Lon: -72.883
Time Zone: US/Eastern Elev: 13 ft

Show me the last for .
Show Decoded

2017-10-16 17:53 METAR KHVN 162153Z 34009KT 10SM FEW020 BKN037 BKN120 12/03 A3007 RMK AO2 SLP181
                 T01170033 =
2017-10-16 16:53 METAR KHVN 162053Z 34008G14KT 10SM SCT037 12/04 A3003 RMK AO2 SLP169 T01220039
                 51020 =
2017-10-16 15:53 METAR KHVN 161953Z 35010G16KT 310V010 10SM FEW020 SCT035 OVC120 14/04 A3002 RMK
                 AO2 SLP166 T01390044 =
2017-10-16 14:53 METAR KHVN 161853Z 34008KT 10SM FEW035 OVC120 12/04 A3000 RMK AO2 SLP159
                 T01220039 =
2017-10-16 13:53 METAR KHVN 161753Z 35010KT 10SM FEW050 OVC120 12/04 A2997 RMK AO2 SLP150
                 T01220039 10156 20122 50001 =
2017-10-16 12:53 METAR KHVN 161653Z 32008G17KT 10SM OVC120 13/04 A2999 RMK AO2 SLP156 T01280044 =
2017-10-16 11:53 METAR KHVN 161553Z 32014G24KT 10SM SCT035 BKN140 14/05 A2999 RMK AO2 SLP153
                 T01440050 $ =
2017-10-16 10:53 METAR KHVN 161453Z 36009KT 10SM SCT036 BKN120 15/07 A2997 RMK AO2 SLP149
                 T01500067 51021 $ =
2017-10-16 09:53 METAR KHVN 161353Z 34009G18KT 310V010 10SM BKN037 BKN130 14/06 A2995 RMK AO2
                 SLP142 T01440061 $ =
2017-10-16 08:53 METAR KHVN 161253Z 32007KT 270V340 10SM FEW025 BKN037 BKN130 14/07 A2994 RMK AO2
                 PRESRR SLP140 T01440067 $ =
2017-10-16 07:53 METAR KHVN 161153Z 32008G17KT 10SM FEW020 BKN040 OVC120 16/08 A2991 RMK AO2
                 SLP128 60001 70001 T01560083 10206 20156 53033 $ =
2017-10-16 06:53 METAR KHVN 161053Z 34011G20KT 10SM SCT020 BKN060 BKN120 16/11 A2987 RMK AO2
                 SLP115 T01610106 $ =
2017-10-16 05:53 METAR KHVN 160953Z 31008KT 5SM BR BKN055 OVC070 17/14 A2984 RMK AO2 RAB12E30
                 SLP102 P0000 T01720139 $ =
2017-10-16 04:53 METAR KHVN 160853Z AUTO 32006KT 10SM FEW055 BKN070 OVC090 18/14 A2981 RMK AO2
                 SLP095 60001 T01780139 53009 $ =
2017-10-16 03:53 METAR KHVN 160753Z AUTO 31007KT 10SM OVC060 19/14 A2981 RMK AO2 RAB02E20 SLP093
                 P0000 T01890144 $ =
2017-10-16 02:53 METAR KHVN 160653Z AUTO 31008KT 10SM FEW011 FEW039 OVC070 20/18 A2979 RMK AO2
                 RAB28E51 SLP087 P0001 T02000178 $ =
2017-10-16 02:35 METAR KHVN 160635Z AUTO VRB04KT 10SM -RA SCT013 SCT019 OVC065 20/18 A2978 RMK
                 AO2 RAB28 P0001 T02000183 $ =
2017-10-16 02:12 METAR KHVN 160612Z AUTO 23007KT 10SM BKN014 OVC070 21/18 A2979 RMK AO2 T02060183
                 $ =
2017-10-16 01:53 METAR KHVN 160553Z AUTO 23009KT 10SM FEW012 BKN018 OVC070 21/18 A2979 RMK AO2
                 SLP086 T02060183 10206 20206 55002 $ =
2017-10-16 00:53 METAR KHVN 160453Z AUTO 21008KT 10SM OVC017 21/18 A2978 RMK AO2 SLP085 T02060183
                 402220183 $ =
2017-10-15 23:53 METAR KHVN 160353Z AUTO 21012KT 10SM OVC021 21/18 A2979 RMK AO2 SLP086 T02060183
                 $ =
2017-10-15 22:53 METAR KHVN 160253Z AUTO 21013G18KT 10SM OVC021 21/17 A2979 RMK AO2 SLP088
                 T02060172 58005 $ =
2017-10-15 21:53 METAR KHVN 160153Z 21012G17KT 10SM OVC021 21/18 A2981 RMK AO2 SLP093 T02060178 $
                 =
2017-10-15 20:53 METAR KHVN 160053Z 21009G16KT 10SM BKN022 21/18 A2981 RMK AO2 SLP093 T02060183 $
                 =
2017-10-15 20:29 METAR KHVN 160029Z 21010KT 10SM SCT023 21/18 A2981 RMK AO2 T02060183 $ =
2017-10-15 19:53 METAR KHVN 152353Z 21007KT 10SM SCT015 BKN023 OVC150 21/18 A2982 RMK AO2 SLP098
                 T02060183 10222 20206 58011 $ =
2017-10-15 18:53 METAR KHVN 152253Z 21007KT 10SM SCT015 BKN023 OVC150 21/18 A2983 RMK AO2 SLP102
                 T02110183 $ =

Support USWX by starting your Amazon purchase here.